sensor_id;sensor_type;location;lat;lon;timestamp;temperature;humidity
47779;DHT22;33538;48.432;11.350;2022-12-18T00:02:15;-3.90;99.90
47779;DHT22;33538;48.432;11.350;2022-12-18T00:04:43;-3.90;99.90
47779;DHT22;33538;48.432;11.350;2022-12-18T00:07:10;-3.90;99.90
47779;DHT22;33538;48.432;11.350;2022-12-18T00:09:36;-3.90;99.90
47779;DHT22;33538;48.432;11.350;2022-12-18T00:12:06;-4.00;99.90
47779;DHT22;33538;48.432;11.350;2022-12-18T00:14:41;-3.90;99.90
47779;DHT22;33538;48.432;11.350;2022-12-18T00:17:08;-3.90;99.90
47779;DHT22;33538;48.432;11.350;2022-12-18T00:19:34;-3.90;99.90
47779;DHT22;33538;48.432;11.350;2022-12-18T00:22:03;-3.90;99.90
47779;DHT22;33538;48.432;11.350;2022-12-18T00:24:29;-3.90;99.90
47779;DHT22;33538;48.432;11.350;2022-12-18T00:26:56;-3.90;99.90
47779;DHT22;33538;48.432;11.350;2022-12-18T00:29:23;-3.90;99.90
47779;DHT22;33538;48.432;11.350;2022-12-18T00:31:50;-3.90;99.90
47779;DHT22;33538;48.432;11.350;2022-12-18T00:34:16;-3.90;99.90
47779;DHT22;33538;48.432;11.350;2022-12-18T00:36:43;-3.90;99.90
47779;DHT22;33538;48.432;11.350;2022-12-18T00:39:11;-3.90;99.90
47779;DHT22;33538;48.432;11.350;2022-12-18T00:41:38;-3.90;99.90
47779;DHT22;33538;48.432;11.350;2022-12-18T00:44:07;-3.90;99.90
47779;DHT22;33538;48.432;11.350;2022-12-18T00:46:34;-3.90;99.90
47779;DHT22;33538;48.432;11.350;2022-12-18T00:49:01;-3.90;99.90
47779;DHT22;33538;48.432;11.350;2022-12-18T00:51:28;-3.90;99.90
47779;DHT22;33538;48.432;11.350;2022-12-18T00:53:55;-3.90;99.90
47779;DHT22;33538;48.432;11.350;2022-12-18T00:56:23;-3.90;99.90
47779;DHT22;33538;48.432;11.350;2022-12-18T00:58:50;-3.90;99.90
47779;DHT22;33538;48.432;11.350;2022-12-18T01:01:17;-3.90;99.90
47779;DHT22;33538;48.432;11.350;2022-12-18T01:03:44;-3.90;99.90
47779;DHT22;33538;48.432;11.350;2022-12-18T01:06:13;-3.90;99.90
47779;DHT22;33538;48.432;11.350;2022-12-18T01:08:40;-3.90;99.90
47779;DHT22;33538;48.432;11.350;2022-12-18T01:11:08;-3.80;99.90
47779;DHT22;33538;48.432;11.350;2022-12-18T01:13:36;-3.80;99.90
47779;DHT22;33538;48.432;11.350;2022-12-18T01:16:04;-3.80;99.90
47779;DHT22;33538;48.432;11.350;2022-12-18T01:18:31;-3.80;99.90
47779;DHT22;33538;48.432;11.350;2022-12-18T01:20:58;-3.80;99.90
47779;DHT22;33538;48.432;11.350;2022-12-18T01:23:25;-3.80;99.90
47779;DHT22;33538;48.432;11.350;2022-12-18T01:25:51;-3.80;99.90
47779;DHT22;33538;48.432;11.350;2022-12-18T01:28:18;-3.80;99.90
47779;DHT22;33538;48.432;11.350;2022-12-18T01:30:46;-3.80;99.90
47779;DHT22;33538;48.432;11.350;2022-12-18T01:33:13;-3.80;99.90
47779;DHT22;33538;48.432;11.350;2022-12-18T01:35:41;-3.70;99.90
47779;DHT22;33538;48.432;11.350;2022-12-18T01:38:07;-3.70;99.90
47779;DHT22;33538;48.432;11.350;2022-12-18T01:40:35;-3.70;99.90
47779;DHT22;33538;48.432;11.350;2022-12-18T01:43:02;-3.70;99.90
47779;DHT22;33538;48.432;11.350;2022-12-18T01:45:30;-3.70;99.90
47779;DHT22;33538;48.432;11.350;2022-12-18T01:48:01;-3.70;99.90
47779;DHT22;33538;48.432;11.350;2022-12-18T01:50:31;-3.70;99.90
47779;DHT22;33538;48.432;11.350;2022-12-18T01:53:02;-3.70;99.90
47779;DHT22;33538;48.432;11.350;2022-12-18T01:55:34;-3.70;99.90
47779;DHT22;33538;48.432;11.350;2022-12-18T01:58:03;-3.70;99.90
47779;DHT22;33538;48.432;11.350;2022-12-18T02:00:31;-3.70;99.90
47779;DHT22;33538;48.432;11.350;2022-12-18T02:02:59;-3.70;99.90
47779;DHT22;33538;48.432;11.350;2022-12-18T02:05:34;-3.70;99.90
47779;DHT22;33538;48.432;11.350;2022-12-18T02:08:09;-3.70;99.90
47779;DHT22;33538;48.432;11.350;2022-12-18T02:10:44;-3.70;99.90
47779;DHT22;33538;48.432;11.350;2022-12-18T02:13:15;-3.70;99.90
47779;DHT22;33538;48.432;11.350;2022-12-18T02:15:51;-3.70;99.90
47779;DHT22;33538;48.432;11.350;2022-12-18T02:18:24;-3.70;99.90
47779;DHT22;33538;48.432;11.350;2022-12-18T02:20:55;-3.70;99.90
47779;DHT22;33538;48.432;11.350;2022-12-18T02:23:42;-3.70;99.90
47779;DHT22;33538;48.432;11.350;2022-12-18T02:26:16;-3.70;99.90
47779;DHT22;33538;48.432;11.350;2022-12-18T02:28:48;-3.60;99.90
47779;DHT22;33538;48.432;11.350;2022-12-18T02:31:19;-3.70;99.90
47779;DHT22;33538;48.432;11.350;2022-12-18T02:33:48;-3.70;99.90
47779;DHT22;33538;48.432;11.350;2022-12-18T02:36:16;-3.70;99.90
47779;DHT22;33538;48.432;11.350;2022-12-18T02:38:44;-3.70;99.90
47779;DHT22;33538;48.432;11.350;2022-12-18T02:41:14;-3.70;99.90
47779;DHT22;33538;48.432;11.350;2022-12-18T02:43:46;-3.60;99.90
47779;DHT22;33538;48.432;11.350;2022-12-18T02:46:27;-3.60;99.90
47779;DHT22;33538;48.432;11.350;2022-12-18T02:49:01;-3.60;99.90
47779;DHT22;33538;48.432;11.350;2022-12-18T02:51:31;-3.60;99.90
47779;DHT22;33538;48.432;11.350;2022-12-18T02:54:04;-3.60;99.90
47779;DHT22;33538;48.432;11.350;2022-12-18T02:56:38;-3.70;99.90
47779;DHT22;33538;48.432;11.350;2022-12-18T02:59:09;-3.60;99.90
47779;DHT22;33538;48.432;11.350;2022-12-18T03:01:42;-3.60;99.90
47779;DHT22;33538;48.432;11.350;2022-12-18T03:04:14;-3.60;99.90
47779;DHT22;33538;48.432;11.350;2022-12-18T03:06:46;-3.70;99.90
47779;DHT22;33538;48.432;11.350;2022-12-18T03:09:17;-3.70;99.90
47779;DHT22;33538;48.432;11.350;2022-12-18T03:11:52;-3.60;99.90
47779;DHT22;33538;48.432;11.350;2022-12-18T03:14:21;-3.60;99.90
47779;DHT22;33538;48.432;11.350;2022-12-18T03:16:51;-3.70;99.90
47779;DHT22;33538;48.432;11.350;2022-12-18T03:19:21;-3.70;99.90
47779;DHT22;33538;48.432;11.350;2022-12-18T03:21:51;-3.60;99.90
47779;DHT22;33538;48.432;11.350;2022-12-18T03:24:20;-3.60;99.90
47779;DHT22;33538;48.432;11.350;2022-12-18T03:26:52;-3.60;99.90
47779;DHT22;33538;48.432;11.350;2022-12-18T03:29:22;-3.60;99.90
47779;DHT22;33538;48.432;11.350;2022-12-18T03:31:55;-3.60;99.90
47779;DHT22;33538;48.432;11.350;2022-12-18T03:34:25;-3.60;99.90
47779;DHT22;33538;48.432;11.350;2022-12-18T03:36:53;-3.60;99.90
47779;DHT22;33538;48.432;11.350;2022-12-18T03:39:20;-3.60;99.90
47779;DHT22;33538;48.432;11.350;2022-12-18T03:41:54;-3.60;99.90
47779;DHT22;33538;48.432;11.350;2022-12-18T03:44:27;-3.60;99.90
47779;DHT22;33538;48.432;11.350;2022-12-18T03:47:01;-3.60;99.90
47779;DHT22;33538;48.432;11.350;2022-12-18T03:49:34;-3.60;99.90
47779;DHT22;33538;48.432;11.350;2022-12-18T03:52:04;-3.60;99.90
47779;DHT22;33538;48.432;11.350;2022-12-18T03:54:33;-3.60;99.90
47779;DHT22;33538;48.432;11.350;2022-12-18T03:57:06;-3.60;99.90
47779;DHT22;33538;48.432;11.350;2022-12-18T03:59:34;-3.60;99.90
47779;DHT22;33538;48.432;11.350;2022-12-18T04:02:01;-3.60;99.90
47779;DHT22;33538;48.432;11.350;2022-12-18T04:04:31;-3.60;99.90
47779;DHT22;33538;48.432;11.350;2022-12-18T04:06:58;-3.60;99.90
47779;DHT22;33538;48.432;11.350;2022-12-18T04:09:26;-3.60;99.90
47779;DHT22;33538;48.432;11.350;2022-12-18T04:11:53;-3.60;99.90
47779;DHT22;33538;48.432;11.350;2022-12-18T04:14:21;-3.60;99.90
47779;DHT22;33538;48.432;11.350;2022-12-18T04:16:47;-3.60;99.90
47779;DHT22;33538;48.432;11.350;2022-12-18T04:19:14;-3.60;99.90
47779;DHT22;33538;48.432;11.350;2022-12-18T04:21:41;-3.50;99.90
47779;DHT22;33538;48.432;11.350;2022-12-18T04:24:08;-3.50;99.90
47779;DHT22;33538;48.432;11.350;2022-12-18T04:26:35;-3.50;99.90
47779;DHT22;33538;48.432;11.350;2022-12-18T04:29:02;-3.50;99.90
47779;DHT22;33538;48.432;11.350;2022-12-18T04:31:30;-3.50;99.90
47779;DHT22;33538;48.432;11.350;2022-12-18T04:33:57;-3.50;99.90
47779;DHT22;33538;48.432;11.350;2022-12-18T04:36:24;-3.50;99.90
47779;DHT22;33538;48.432;11.350;2022-12-18T04:38:51;-3.50;99.90
47779;DHT22;33538;48.432;11.350;2022-12-18T04:41:17;-3.50;99.90
47779;DHT22;33538;48.432;11.350;2022-12-18T04:43:44;-3.50;99.90
47779;DHT22;33538;48.432;11.350;2022-12-18T04:46:11;-3.50;99.90
47779;DHT22;33538;48.432;11.350;2022-12-18T04:48:39;-3.50;99.90
47779;DHT22;33538;48.432;11.350;2022-12-18T04:51:06;-3.50;99.90
47779;DHT22;33538;48.432;11.350;2022-12-18T04:53:33;-3.50;99.90
47779;DHT22;33538;48.432;11.350;2022-12-18T04:56:05;-3.50;99.90
47779;DHT22;33538;48.432;11.350;2022-12-18T04:58:32;-3.50;99.90
47779;DHT22;33538;48.432;11.350;2022-12-18T05:00:59;-3.50;99.90
47779;DHT22;33538;48.432;11.350;2022-12-18T05:03:26;-3.50;99.90
47779;DHT22;33538;48.432;11.350;2022-12-18T05:05:54;-3.50;99.90
47779;DHT22;33538;48.432;11.350;2022-12-18T05:08:20;-3.50;99.90
47779;DHT22;33538;48.432;11.350;2022-12-18T05:10:47;-3.50;99.90
47779;DHT22;33538;48.432;11.350;2022-12-18T05:13:14;-3.50;99.90
47779;DHT22;33538;48.432;11.350;2022-12-18T05:15:41;-3.50;99.90
47779;DHT22;33538;48.432;11.350;2022-12-18T05:18:08;-3.50;99.90
47779;DHT22;33538;48.432;11.350;2022-12-18T05:20:34;-3.50;99.90
47779;DHT22;33538;48.432;11.350;2022-12-18T05:23:03;-3.50;99.90
47779;DHT22;33538;48.432;11.350;2022-12-18T05:25:29;-3.40;99.90
47779;DHT22;33538;48.432;11.350;2022-12-18T05:27:56;-3.50;99.90
47779;DHT22;33538;48.432;11.350;2022-12-18T05:30:23;-3.50;99.90
47779;DHT22;33538;48.432;11.350;2022-12-18T05:32:50;-3.50;99.90
47779;DHT22;33538;48.432;11.350;2022-12-18T05:35:17;-3.50;99.90
47779;DHT22;33538;48.432;11.350;2022-12-18T05:37:44;-3.40;99.90
47779;DHT22;33538;48.432;11.350;2022-12-18T05:40:12;-3.50;99.90
47779;DHT22;33538;48.432;11.350;2022-12-18T05:42:39;-3.50;99.90
47779;DHT22;33538;48.432;11.350;2022-12-18T05:45:07;-3.40;99.90
47779;DHT22;33538;48.432;11.350;2022-12-18T05:47:33;-3.50;99.90
47779;DHT22;33538;48.432;11.350;2022-12-18T05:50:00;-3.50;99.90
47779;DHT22;33538;48.432;11.350;2022-12-18T05:52:28;-3.50;99.90
47779;DHT22;33538;48.432;11.350;2022-12-18T05:54:54;-3.50;99.90
47779;DHT22;33538;48.432;11.350;2022-12-18T05:57:22;-3.50;99.90
47779;DHT22;33538;48.432;11.350;2022-12-18T05:59:49;-3.50;99.90
47779;DHT22;33538;48.432;11.350;2022-12-18T06:02:16;-3.50;99.90
47779;DHT22;33538;48.432;11.350;2022-12-18T06:04:43;-3.40;99.90
47779;DHT22;33538;48.432;11.350;2022-12-18T06:07:09;-3.40;99.90
47779;DHT22;33538;48.432;11.350;2022-12-18T06:09:36;-3.40;99.90
47779;DHT22;33538;48.432;11.350;2022-12-18T06:12:03;-3.40;99.90
47779;DHT22;33538;48.432;11.350;2022-12-18T06:14:32;-3.40;99.90
47779;DHT22;33538;48.432;11.350;2022-12-18T06:16:58;-3.40;99.90
47779;DHT22;33538;48.432;11.350;2022-12-18T06:19:25;-3.40;99.90
47779;DHT22;33538;48.432;11.350;2022-12-18T06:21:52;-3.40;99.90
47779;DHT22;33538;48.432;11.350;2022-12-18T06:24:19;-3.40;99.90
47779;DHT22;33538;48.432;11.350;2022-12-18T06:26:46;-3.40;99.90
47779;DHT22;33538;48.432;11.350;2022-12-18T06:29:12;-3.40;99.90
47779;DHT22;33538;48.432;11.350;2022-12-18T06:31:40;-3.40;99.90
47779;DHT22;33538;48.432;11.350;2022-12-18T06:34:07;-3.40;99.90
47779;DHT22;33538;48.432;11.350;2022-12-18T06:36:34;-3.40;99.90
47779;DHT22;33538;48.432;11.350;2022-12-18T06:39:01;-3.40;99.90
47779;DHT22;33538;48.432;11.350;2022-12-18T06:41:28;-3.40;99.90
47779;DHT22;33538;48.432;11.350;2022-12-18T06:43:55;-3.40;99.90
47779;DHT22;33538;48.432;11.350;2022-12-18T06:46:25;-3.40;99.90
47779;DHT22;33538;48.432;11.350;2022-12-18T06:48:53;-3.40;99.90
47779;DHT22;33538;48.432;11.350;2022-12-18T06:51:21;-3.40;99.90
47779;DHT22;33538;48.432;11.350;2022-12-18T06:53:48;-3.40;99.90
47779;DHT22;33538;48.432;11.350;2022-12-18T06:56:15;-3.40;99.90
47779;DHT22;33538;48.432;11.350;2022-12-18T06:58:42;-3.40;99.90
47779;DHT22;33538;48.432;11.350;2022-12-18T07:01:10;-3.40;99.90
47779;DHT22;33538;48.432;11.350;2022-12-18T07:03:38;-3.40;99.90
47779;DHT22;33538;48.432;11.350;2022-12-18T07:06:13;-3.50;99.90
47779;DHT22;33538;48.432;11.350;2022-12-18T07:08:40;-3.40;99.90
47779;DHT22;33538;48.432;11.350;2022-12-18T07:11:07;-3.50;99.90
47779;DHT22;33538;48.432;11.350;2022-12-18T07:13:34;-3.40;99.90
47779;DHT22;33538;48.432;11.350;2022-12-18T07:16:07;-3.50;99.90
47779;DHT22;33538;48.432;11.350;2022-12-18T07:18:44;-3.40;99.90
47779;DHT22;33538;48.432;11.350;2022-12-18T07:21:13;-3.40;99.90
47779;DHT22;33538;48.432;11.350;2022-12-18T07:23:41;-3.40;99.90
47779;DHT22;33538;48.432;11.350;2022-12-18T07:26:10;-3.40;99.90
47779;DHT22;33538;48.432;11.350;2022-12-18T07:28:38;-3.40;99.90
47779;DHT22;33538;48.432;11.350;2022-12-18T07:31:05;-3.40;99.90
47779;DHT22;33538;48.432;11.350;2022-12-18T07:33:33;-3.40;99.90
47779;DHT22;33538;48.432;11.350;2022-12-18T07:36:00;-3.40;99.90
47779;DHT22;33538;48.432;11.350;2022-12-18T07:38:29;-3.40;99.90
47779;DHT22;33538;48.432;11.350;2022-12-18T07:41:00;-3.40;99.90
47779;DHT22;33538;48.432;11.350;2022-12-18T07:43:27;-3.40;99.90
47779;DHT22;33538;48.432;11.350;2022-12-18T07:45:54;-3.40;99.90
47779;DHT22;33538;48.432;11.350;2022-12-18T07:48:21;-3.40;99.90
47779;DHT22;33538;48.432;11.350;2022-12-18T07:50:47;-3.40;99.90
47779;DHT22;33538;48.432;11.350;2022-12-18T07:53:14;-3.40;99.90
47779;DHT22;33538;48.432;11.350;2022-12-18T07:55:42;-3.40;99.90
47779;DHT22;33538;48.432;11.350;2022-12-18T07:58:29;-3.40;99.90
47779;DHT22;33538;48.432;11.350;2022-12-18T08:01:03;-3.40;99.90
47779;DHT22;33538;48.432;11.350;2022-12-18T08:03:30;-3.40;99.90
47779;DHT22;33538;48.432;11.350;2022-12-18T08:05:59;-3.40;99.90
47779;DHT22;33538;48.432;11.350;2022-12-18T08:08:26;-3.40;99.90
47779;DHT22;33538;48.432;11.350;2022-12-18T08:10:54;-3.40;99.90
47779;DHT22;33538;48.432;11.350;2022-12-18T08:13:21;-3.40;99.90
47779;DHT22;33538;48.432;11.350;2022-12-18T08:15:56;-3.40;99.90
47779;DHT22;33538;48.432;11.350;2022-12-18T08:18:22;-3.40;99.90
47779;DHT22;33538;48.432;11.350;2022-12-18T08:20:49;-3.40;99.90
47779;DHT22;33538;48.432;11.350;2022-12-18T08:23:16;-3.30;99.90
47779;DHT22;33538;48.432;11.350;2022-12-18T08:25:43;-3.30;99.90
47779;DHT22;33538;48.432;11.350;2022-12-18T08:28:11;-3.30;99.90
47779;DHT22;33538;48.432;11.350;2022-12-18T08:30:38;-3.30;99.90
47779;DHT22;33538;48.432;11.350;2022-12-18T08:33:05;-3.30;99.90
47779;DHT22;33538;48.432;11.350;2022-12-18T08:35:35;-3.30;99.90
47779;DHT22;33538;48.432;11.350;2022-12-18T08:38:08;-3.30;99.90
47779;DHT22;33538;48.432;11.350;2022-12-18T08:40:34;-3.40;99.90
47779;DHT22;33538;48.432;11.350;2022-12-18T08:43:01;-3.40;99.90
47779;DHT22;33538;48.432;11.350;2022-12-18T08:45:29;-3.40;99.90
47779;DHT22;33538;48.432;11.350;2022-12-18T08:47:56;-3.30;99.90
47779;DHT22;33538;48.432;11.350;2022-12-18T08:50:23;-3.30;99.90
47779;DHT22;33538;48.432;11.350;2022-12-18T08:52:49;-3.40;99.90
47779;DHT22;33538;48.432;11.350;2022-12-18T08:55:16;-3.40;99.90
47779;DHT22;33538;48.432;11.350;2022-12-18T08:57:43;-3.30;99.90
47779;DHT22;33538;48.432;11.350;2022-12-18T09:00:14;-3.40;99.90
47779;DHT22;33538;48.432;11.350;2022-12-18T09:02:44;-3.30;99.90
47779;DHT22;33538;48.432;11.350;2022-12-18T09:05:11;-3.30;99.90
47779;DHT22;33538;48.432;11.350;2022-12-18T09:07:38;-3.30;99.90
47779;DHT22;33538;48.432;11.350;2022-12-18T09:10:05;-3.30;99.90
47779;DHT22;33538;48.432;11.350;2022-12-18T09:12:32;-3.30;99.90
47779;DHT22;33538;48.432;11.350;2022-12-18T09:14:59;-3.30;99.90
47779;DHT22;33538;48.432;11.350;2022-12-18T09:17:26;-3.30;99.90
47779;DHT22;33538;48.432;11.350;2022-12-18T09:19:54;-3.30;99.90
47779;DHT22;33538;48.432;11.350;2022-12-18T09:22:21;-3.30;99.90
47779;DHT22;33538;48.432;11.350;2022-12-18T09:24:49;-3.30;99.90
47779;DHT22;33538;48.432;11.350;2022-12-18T09:27:15;-3.30;99.90
47779;DHT22;33538;48.432;11.350;2022-12-18T09:29:42;-3.30;99.90
47779;DHT22;33538;48.432;11.350;2022-12-18T09:32:09;-3.30;99.90
47779;DHT22;33538;48.432;11.350;2022-12-18T09:34:36;-3.20;99.90
47779;DHT22;33538;48.432;11.350;2022-12-18T09:37:04;-3.30;99.90
47779;DHT22;33538;48.432;11.350;2022-12-18T09:39:31;-3.30;99.90
47779;DHT22;33538;48.432;11.350;2022-12-18T09:41:58;-3.20;99.90
47779;DHT22;33538;48.432;11.350;2022-12-18T09:44:26;-3.20;99.90
47779;DHT22;33538;48.432;11.350;2022-12-18T09:47:01;-3.20;99.90
47779;DHT22;33538;48.432;11.350;2022-12-18T09:49:32;-3.20;99.90
47779;DHT22;33538;48.432;11.350;2022-12-18T09:52:04;-3.20;99.90
47779;DHT22;33538;48.432;11.350;2022-12-18T09:54:38;-3.20;99.90
47779;DHT22;33538;48.432;11.350;2022-12-18T09:57:05;-3.20;99.90
47779;DHT22;33538;48.432;11.350;2022-12-18T09:59:35;-3.20;99.90
47779;DHT22;33538;48.432;11.350;2022-12-18T10:02:16;-3.20;99.90
47779;DHT22;33538;48.432;11.350;2022-12-18T10:04:45;-3.20;99.90
47779;DHT22;33538;48.432;11.350;2022-12-18T10:07:19;-3.10;99.90
47779;DHT22;33538;48.432;11.350;2022-12-18T10:09:53;-3.10;99.90
47779;DHT22;33538;48.432;11.350;2022-12-18T10:12:32;-3.10;99.90
47779;DHT22;33538;48.432;11.350;2022-12-18T10:15:07;-3.10;99.90
47779;DHT22;33538;48.432;11.350;2022-12-18T10:17:44;-3.10;99.90
47779;DHT22;33538;48.432;11.350;2022-12-18T10:20:16;-3.10;99.90
47779;DHT22;33538;48.432;11.350;2022-12-18T10:22:50;-3.10;99.90
47779;DHT22;33538;48.432;11.350;2022-12-18T10:25:23;-3.10;99.90
47779;DHT22;33538;48.432;11.350;2022-12-18T10:27:53;-3.00;99.90
47779;DHT22;33538;48.432;11.350;2022-12-18T10:30:23;-3.10;99.90
47779;DHT22;33538;48.432;11.350;2022-12-18T10:32:50;-3.00;99.90
47779;DHT22;33538;48.432;11.350;2022-12-18T10:35:20;-3.00;99.90
47779;DHT22;33538;48.432;11.350;2022-12-18T10:38:03;-3.00;99.90
47779;DHT22;33538;48.432;11.350;2022-12-18T10:40:31;-3.00;99.90
47779;DHT22;33538;48.432;11.350;2022-12-18T10:43:04;-3.00;99.90
47779;DHT22;33538;48.432;11.350;2022-12-18T10:45:31;-3.00;99.90
47779;DHT22;33538;48.432;11.350;2022-12-18T10:47:59;-3.00;99.90
47779;DHT22;33538;48.432;11.350;2022-12-18T10:50:29;-3.00;99.90
47779;DHT22;33538;48.432;11.350;2022-12-18T10:53:21;-3.00;99.90
47779;DHT22;33538;48.432;11.350;2022-12-18T10:55:49;-3.00;99.90
47779;DHT22;33538;48.432;11.350;2022-12-18T10:58:24;-3.00;99.90
47779;DHT22;33538;48.432;11.350;2022-12-18T11:01:10;-2.90;99.90
47779;DHT22;33538;48.432;11.350;2022-12-18T11:03:39;-2.90;99.90
47779;DHT22;33538;48.432;11.350;2022-12-18T11:06:09;-2.90;99.90
47779;DHT22;33538;48.432;11.350;2022-12-18T11:08:38;-2.90;99.90
47779;DHT22;33538;48.432;11.350;2022-12-18T11:11:14;-2.90;99.90
47779;DHT22;33538;48.432;11.350;2022-12-18T11:13:43;-2.90;99.90
47779;DHT22;33538;48.432;11.350;2022-12-18T11:16:18;-2.90;99.90
47779;DHT22;33538;48.432;11.350;2022-12-18T11:18:46;-2.90;99.90
47779;DHT22;33538;48.432;11.350;2022-12-18T11:21:13;-2.90;99.90
47779;DHT22;33538;48.432;11.350;2022-12-18T11:23:48;-2.90;99.90
47779;DHT22;33538;48.432;11.350;2022-12-18T11:26:16;-2.90;99.90
47779;DHT22;33538;48.432;11.350;2022-12-18T11:28:46;-2.90;99.90
47779;DHT22;33538;48.432;11.350;2022-12-18T11:31:24;-2.90;99.90
47779;DHT22;33538;48.432;11.350;2022-12-18T11:34:00;-2.90;99.90
47779;DHT22;33538;48.432;11.350;2022-12-18T11:36:48;-2.90;99.90
47779;DHT22;33538;48.432;11.350;2022-12-18T11:39:19;-2.90;99.90
47779;DHT22;33538;48.432;11.350;2022-12-18T11:41:52;-2.90;99.90
47779;DHT22;33538;48.432;11.350;2022-12-18T11:44:26;-2.90;99.90
47779;DHT22;33538;48.432;11.350;2022-12-18T11:47:01;-2.90;99.90
47779;DHT22;33538;48.432;11.350;2022-12-18T11:49:34;-2.90;99.90
47779;DHT22;33538;48.432;11.350;2022-12-18T11:52:07;-2.90;99.90
47779;DHT22;33538;48.432;11.350;2022-12-18T11:54:38;-2.90;99.90
47779;DHT22;33538;48.432;11.350;2022-12-18T11:57:08;-2.90;99.90
47779;DHT22;33538;48.432;11.350;2022-12-18T11:59:45;-2.90;99.90
47779;DHT22;33538;48.432;11.350;2022-12-18T12:02:29;-2.90;99.90
47779;DHT22;33538;48.432;11.350;2022-12-18T12:05:18;-2.90;99.90
47779;DHT22;33538;48.432;11.350;2022-12-18T12:07:53;-2.90;99.90
47779;DHT22;33538;48.432;11.350;2022-12-18T12:10:34;-2.90;99.90
47779;DHT22;33538;48.432;11.350;2022-12-18T12:13:16;-2.90;99.90
47779;DHT22;33538;48.432;11.350;2022-12-18T12:15:54;-2.90;99.90
47779;DHT22;33538;48.432;11.350;2022-12-18T12:18:31;-2.90;99.90
47779;DHT22;33538;48.432;11.350;2022-12-18T12:21:11;-2.90;99.90
47779;DHT22;33538;48.432;11.350;2022-12-18T12:23:46;-2.90;99.90
47779;DHT22;33538;48.432;11.350;2022-12-18T12:26:23;-2.90;99.90
47779;DHT22;33538;48.432;11.350;2022-12-18T12:29:16;-2.90;99.90
47779;DHT22;33538;48.432;11.350;2022-12-18T12:32:22;-2.90;99.90
47779;DHT22;33538;48.432;11.350;2022-12-18T12:35:02;-2.80;99.90
47779;DHT22;33538;48.432;11.350;2022-12-18T12:37:40;-2.80;99.90
47779;DHT22;33538;48.432;11.350;2022-12-18T12:40:12;-2.90;99.90
47779;DHT22;33538;48.432;11.350;2022-12-18T12:43:12;-2.90;99.90
47779;DHT22;33538;48.432;11.350;2022-12-18T12:45:47;-2.90;99.90
47779;DHT22;33538;48.432;11.350;2022-12-18T12:48:28;-2.90;99.90
47779;DHT22;33538;48.432;11.350;2022-12-18T12:51:00;-2.90;99.90
47779;DHT22;33538;48.432;11.350;2022-12-18T12:53:31;-2.90;99.90
47779;DHT22;33538;48.432;11.350;2022-12-18T12:56:00;-2.90;99.90
47779;DHT22;33538;48.432;11.350;2022-12-18T12:58:36;-2.90;99.90
47779;DHT22;33538;48.432;11.350;2022-12-18T13:01:16;-2.90;99.90
47779;DHT22;33538;48.432;11.350;2022-12-18T13:03:56;-2.90;99.90
47779;DHT22;33538;48.432;11.350;2022-12-18T13:06:35;-2.80;99.90
47779;DHT22;33538;48.432;11.350;2022-12-18T13:09:10;-2.80;99.90
47779;DHT22;33538;48.432;11.350;2022-12-18T13:11:39;-2.80;99.90
47779;DHT22;33538;48.432;11.350;2022-12-18T13:14:20;-2.80;99.90
47779;DHT22;33538;48.432;11.350;2022-12-18T13:16:48;-2.80;99.90
47779;DHT22;33538;48.432;11.350;2022-12-18T13:19:22;-2.80;99.90
47779;DHT22;33538;48.432;11.350;2022-12-18T13:21:53;-2.80;99.90
47779;DHT22;33538;48.432;11.350;2022-12-18T13:24:24;-2.80;99.90
47779;DHT22;33538;48.432;11.350;2022-12-18T13:26:52;-2.80;99.90
47779;DHT22;33538;48.432;11.350;2022-12-18T13:29:41;-2.80;99.90
47779;DHT22;33538;48.432;11.350;2022-12-18T13:32:20;-2.70;99.90
47779;DHT22;33538;48.432;11.350;2022-12-18T13:34:48;-2.80;99.90
47779;DHT22;33538;48.432;11.350;2022-12-18T13:37:42;-2.80;99.90
47779;DHT22;33538;48.432;11.350;2022-12-18T13:43:34;-2.70;99.90
47779;DHT22;33538;48.432;11.350;2022-12-18T13:46:22;-2.70;99.90
47779;DHT22;33538;48.432;11.350;2022-12-18T13:48:56;-2.70;99.90
47779;DHT22;33538;48.432;11.350;2022-12-18T13:51:24;-2.80;99.90
47779;DHT22;33538;48.432;11.350;2022-12-18T13:53:53;-2.70;99.90
47779;DHT22;33538;48.432;11.350;2022-12-18T13:56:22;-2.80;99.90
47779;DHT22;33538;48.432;11.350;2022-12-18T13:59:13;-2.80;99.90
47779;DHT22;33538;48.432;11.350;2022-12-18T14:01:46;-2.70;99.90
47779;DHT22;33538;48.432;11.350;2022-12-18T14:04:20;-2.80;99.90
47779;DHT22;33538;48.432;11.350;2022-12-18T14:06:48;-2.70;99.90
47779;DHT22;33538;48.432;11.350;2022-12-18T14:09:19;-2.80;99.90
47779;DHT22;33538;48.432;11.350;2022-12-18T14:11:47;-2.70;99.90
47779;DHT22;33538;48.432;11.350;2022-12-18T14:14:15;-2.80;99.90
47779;DHT22;33538;48.432;11.350;2022-12-18T14:16:42;-2.80;99.90
47779;DHT22;33538;48.432;11.350;2022-12-18T14:19:15;-2.80;99.90
47779;DHT22;33538;48.432;11.350;2022-12-18T14:21:46;-2.80;99.90
47779;DHT22;33538;48.432;11.350;2022-12-18T14:24:14;-2.80;99.90
47779;DHT22;33538;48.432;11.350;2022-12-18T14:26:45;-2.80;99.90
47779;DHT22;33538;48.432;11.350;2022-12-18T14:29:23;-2.80;99.90
47779;DHT22;33538;48.432;11.350;2022-12-18T14:32:11;-2.80;99.90
47779;DHT22;33538;48.432;11.350;2022-12-18T14:34:45;-2.80;99.90
47779;DHT22;33538;48.432;11.350;2022-12-18T14:37:14;-2.80;99.90
47779;DHT22;33538;48.432;11.350;2022-12-18T14:39:52;-2.90;99.90
47779;DHT22;33538;48.432;11.350;2022-12-18T14:42:19;-2.90;99.90
47779;DHT22;33538;48.432;11.350;2022-12-18T14:44:46;-2.90;99.90
47779;DHT22;33538;48.432;11.350;2022-12-18T14:47:33;-2.90;99.90
47779;DHT22;33538;48.432;11.350;2022-12-18T14:50:01;-2.90;99.90
47779;DHT22;33538;48.432;11.350;2022-12-18T14:52:29;-2.90;99.90
47779;DHT22;33538;48.432;11.350;2022-12-18T14:54:58;-2.90;99.90
47779;DHT22;33538;48.432;11.350;2022-12-18T14:57:25;-2.90;99.90
47779;DHT22;33538;48.432;11.350;2022-12-18T15:00:04;-2.90;99.90
47779;DHT22;33538;48.432;11.350;2022-12-18T15:02:31;-2.90;99.90
47779;DHT22;33538;48.432;11.350;2022-12-18T15:05:05;-2.90;99.90
47779;DHT22;33538;48.432;11.350;2022-12-18T15:07:43;-2.90;99.90
47779;DHT22;33538;48.432;11.350;2022-12-18T15:10:13;-2.90;99.90
47779;DHT22;33538;48.432;11.350;2022-12-18T15:12:41;-2.90;99.90
47779;DHT22;33538;48.432;11.350;2022-12-18T15:15:43;-2.90;99.90
47779;DHT22;33538;48.432;11.350;2022-12-18T15:18:13;-2.90;99.90
47779;DHT22;33538;48.432;11.350;2022-12-18T15:20:43;-2.90;99.90
47779;DHT22;33538;48.432;11.350;2022-12-18T15:23:18;-3.00;99.90
47779;DHT22;33538;48.432;11.350;2022-12-18T15:25:46;-3.00;99.90
47779;DHT22;33538;48.432;11.350;2022-12-18T15:28:19;-3.00;99.90
47779;DHT22;33538;48.432;11.350;2022-12-18T15:31:00;-3.00;99.90
47779;DHT22;33538;48.432;11.350;2022-12-18T15:33:31;-3.00;99.90
47779;DHT22;33538;48.432;11.350;2022-12-18T15:36:01;-3.00;99.90
47779;DHT22;33538;48.432;11.350;2022-12-18T15:38:28;-3.00;99.90
47779;DHT22;33538;48.432;11.350;2022-12-18T15:40:55;-3.00;99.90